Time;durP1;ratioP1;P1;durP2;ratioP2;P2;SDS_P1;SDS_P2;PMS_P1;PMS_P2;Temp;Humidity;BMP_temperature;BMP_pressure;BME280_temperature;BME280_humidity;BME280_pressure;Samples;Min_cycle;Max_cycle;Signal;HPM_P1;HPM_P2
2023/08/10 00:01:29;;;;;;;1999.90;999.90;;;15.20;88.40;;;;;;5036600;28;20032;-73
2023/08/10 00:03:55;;;;;;;1999.90;999.90;;;15.20;88.90;;;;;;5035845;28;20087;-73
2023/08/10 00:06:20;;;;;;;1999.90;999.90;;;15.10;88.80;;;;;;5042148;28;20017;-73
2023/08/10 00:08:46;;;;;;;1999.90;999.90;;;15.20;89.00;;;;;;5043866;28;20120;-73
2023/08/10 00:11:12;;;;;;;1999.90;999.90;;;15.10;89.20;;;;;;5038250;28;20404;-73
2023/08/10 00:13:38;;;;;;;1999.90;999.90;;;15.20;89.80;;;;;;5038327;28;20040;-73
2023/08/10 00:16:03;;;;;;;1999.90;999.90;;;15.20;89.70;;;;;;5036753;28;20057;-73
2023/08/10 00:18:29;;;;;;;1999.90;999.90;;;15.10;90.00;;;;;;5036108;28;20029;-72
2023/08/10 00:20:55;;;;;;;1999.90;999.90;;;15.20;90.20;;;;;;5035052;28;20056;-73
2023/08/10 00:23:20;;;;;;;1999.90;999.90;;;15.10;90.00;;;;;;5031483;28;20043;-73
2023/08/10 00:25:47;;;;;;;1999.90;999.90;;;15.20;90.10;;;;;;5037526;28;20122;-73
2023/08/10 00:28:13;;;;;;;1999.90;999.90;;;15.10;90.20;;;;;;5054968;28;20044;-73
2023/08/10 00:30:39;;;;;;;1999.90;999.90;;;14.90;90.40;;;;;;5035372;28;20396;-72
2023/08/10 00:33:05;;;;;;;1999.90;999.90;;;14.90;90.50;;;;;;5033559;28;20034;-72
2023/08/10 00:35:31;;;;;;;1999.90;999.90;;;14.90;90.70;;;;;;5036788;28;20029;-73
2023/08/10 00:37:57;;;;;;;1999.90;999.90;;;14.80;90.90;;;;;;5037805;28;20064;-72
2023/08/10 00:40:23;;;;;;;1999.90;999.90;;;14.70;91.20;;;;;;5034840;28;20036;-71
2023/08/10 00:42:48;;;;;;;1999.90;999.90;;;14.70;91.30;;;;;;5036533;28;20395;-73
2023/08/10 00:45:14;;;;;;;1999.90;999.90;;;14.70;91.40;;;;;;5033825;28;20026;-73
2023/08/10 00:47:41;;;;;;;1999.90;999.90;;;14.70;91.60;;;;;;5037533;28;20050;-73
2023/08/10 00:50:08;;;;;;;1999.90;999.90;;;14.60;91.70;;;;;;5036694;28;20037;-73
2023/08/10 00:52:34;;;;;;;1999.90;999.90;;;14.70;91.70;;;;;;5037928;28;20109;-73
2023/08/10 00:55:01;;;;;;;1999.90;999.90;;;14.60;91.70;;;;;;5037435;28;20041;-73
2023/08/10 00:57:28;;;;;;;1999.90;999.90;;;14.60;91.90;;;;;;5038035;28;20044;-72
2023/08/10 00:59:54;;;;;;;1999.90;999.90;;;14.60;92.00;;;;;;5036635;28;20036;-73
2023/08/10 01:02:20;;;;;;;1999.90;999.90;;;14.60;92.00;;;;;;5033425;28;20033;-72
2023/08/10 01:04:46;;;;;;;1999.90;999.90;;;14.60;92.20;;;;;;5031222;28;20036;-72
2023/08/10 01:07:43;;;;;;;1999.90;999.90;;;14.70;92.40;;;;;;5033215;28;20025;-72
2023/08/10 01:10:47;;;;;;;1999.90;999.90;;;14.70;92.50;;;;;;5035908;28;20025;-72
2023/08/10 01:13:22;;;;;;;1999.90;999.90;;;14.70;92.60;;;;;;5033921;28;20069;-72
2023/08/10 01:15:53;;;;;;;1999.90;999.90;;;14.70;92.60;;;;;;5041571;28;20037;-72
2023/08/10 01:18:25;;;;;;;1999.90;999.90;;;14.80;92.30;;;;;;5040259;28;20044;-72
2023/08/10 01:20:52;;;;;;;1999.90;999.90;;;14.70;92.30;;;;;;5041870;28;20394;-72
2023/08/10 01:23:46;;;;;;;1999.90;999.90;;;14.90;92.40;;;;;;5041728;28;20037;-72
2023/08/10 01:26:12;;;;;;;1999.90;999.90;;;15.00;92.00;;;;;;5038956;28;20033;-71
2023/08/10 01:28:39;;;;;;;1999.90;999.90;;;14.90;91.80;;;;;;5040447;28;20029;-72
2023/08/10 01:31:05;;;;;;;1999.90;999.90;;;14.70;91.90;;;;;;5036749;28;20033;-73
2023/08/10 01:33:31;;;;;;;1999.90;999.90;;;14.50;92.10;;;;;;5039142;28;20475;-72
2023/08/10 01:35:57;;;;;;;1999.90;999.90;;;14.40;92.50;;;;;;5035088;28;20041;-73
2023/08/10 01:38:22;;;;;;;1999.90;999.90;;;14.50;92.90;;;;;;5033634;28;20086;-73
2023/08/10 01:40:50;;;;;;;1999.90;999.90;;;14.50;92.80;;;;;;5035287;28;20511;-72
2023/08/10 01:43:16;;;;;;;1999.90;999.90;;;14.40;92.80;;;;;;5031837;28;20518;-72
2023/08/10 01:45:48;;;;;;;1999.90;999.90;;;14.50;92.80;;;;;;5039998;28;20028;-73
2023/08/10 01:48:20;;;;;;;1999.90;999.90;;;14.50;92.80;;;;;;5043772;28;20025;-72
2023/08/10 01:50:49;;;;;;;1999.90;999.90;;;14.60;92.80;;;;;;5042385;28;20037;-72
2023/08/10 01:53:24;;;;;;;1999.90;999.90;;;14.50;92.80;;;;;;5039830;28;20037;-72
2023/08/10 01:55:49;;;;;;;1999.90;999.90;;;14.50;92.90;;;;;;5040183;28;20033;-72
2023/08/10 01:58:15;;;;;;;1999.90;999.90;;;14.50;93.00;;;;;;5038619;28;20038;-73
2023/08/10 02:00:41;;;;;;;1999.90;999.90;;;14.70;92.90;;;;;;5038049;28;20080;-73
2023/08/10 02:03:07;;;;;;;1999.90;999.90;;;14.70;92.50;;;;;;5041944;28;20731;-71
2023/08/10 02:05:33;;;;;;;1999.90;999.90;;;14.50;92.60;;;;;;5033284;28;20024;-72
2023/08/10 02:07:59;;;;;;;1999.90;999.90;;;14.60;92.70;;;;;;5035817;28;20025;-73
2023/08/10 02:10:25;;;;;;;1999.90;999.90;;;14.60;92.50;;;;;;5038960;28;20087;-73
2023/08/10 02:12:51;;;;;;;1999.90;999.90;;;14.50;92.10;;;;;;5036121;28;20025;-72
2023/08/10 02:15:16;;;;;;;1999.90;999.90;;;14.30;92.30;;;;;;5038165;28;20782;-72
2023/08/10 02:17:42;;;;;;;1999.90;999.90;;;14.20;92.60;;;;;;5035199;28;20032;-73
2023/08/10 02:20:12;;;;;;;1999.90;999.90;;;14.10;93.00;;;;;;5037743;28;20060;-72
2023/08/10 02:22:54;;;;;;;1999.90;999.90;;;14.00;93.10;;;;;;5032246;28;20119;-73
2023/08/10 02:25:21;;;;;;;1999.90;999.90;;;14.00;93.30;;;;;;5034236;28;20355;-72
2023/08/10 02:27:47;;;;;;;1999.90;999.90;;;14.00;93.30;;;;;;5041393;28;20553;-72
2023/08/10 02:30:14;;;;;;;1999.90;999.90;;;14.00;93.40;;;;;;5039635;28;20026;-72
2023/08/10 02:32:40;;;;;;;1999.90;999.90;;;13.90;93.40;;;;;;5035607;28;20068;-72
2023/08/10 02:35:06;;;;;;;1999.90;999.90;;;13.90;93.40;;;;;;5040361;28;20075;-73
2023/08/10 02:37:32;;;;;;;1999.90;999.90;;;14.10;93.70;;;;;;5040795;28;20060;-72
2023/08/10 02:39:58;;;;;;;1999.90;999.90;;;14.20;93.40;;;;;;5034895;28;20051;-73
2023/08/10 02:42:24;;;;;;;1999.90;999.90;;;14.20;93.30;;;;;;5040527;28;20037;-73
2023/08/10 02:44:51;;;;;;;1999.90;999.90;;;14.10;93.00;;;;;;5034396;28;20095;-72
2023/08/10 02:47:17;;;;;;;1999.90;999.90;;;14.20;92.90;;;;;;5039887;28;20037;-72
2023/08/10 02:49:43;;;;;;;1999.90;999.90;;;14.20;92.70;;;;;;5032267;28;20072;-72
2023/08/10 02:52:09;;;;;;;1999.90;999.90;;;14.20;92.60;;;;;;5036761;28;20045;-73
2023/08/10 02:54:35;;;;;;;1999.90;999.90;;;14.20;92.50;;;;;;5033623;28;20123;-72
2023/08/10 02:57:01;;;;;;;1999.90;999.90;;;14.30;92.40;;;;;;5032953;28;20460;-72
2023/08/10 02:59:26;;;;;;;1999.90;999.90;;;14.20;92.20;;;;;;5031996;28;20025;-72
2023/08/10 03:01:52;;;;;;;1999.90;999.90;;;14.30;92.20;;;;;;5029392;28;20632;-72
2023/08/10 03:04:18;;;;;;;1999.90;999.90;;;14.30;91.90;;;;;;5033648;28;20479;-71
2023/08/10 03:06:44;;;;;;;1999.90;999.90;;;14.20;91.90;;;;;;5033634;28;20030;-73
2023/08/10 03:09:10;;;;;;;1999.90;999.90;;;14.20;91.70;;;;;;5042204;28;20033;-72
2023/08/10 03:11:36;;;;;;;1999.90;999.90;;;14.20;91.90;;;;;;5036070;28;20033;-72
2023/08/10 03:14:02;;;;;;;1999.90;999.90;;;14.10;92.40;;;;;;5033286;28;20152;-72
2023/08/10 03:16:29;;;;;;;1999.90;999.90;;;14.30;92.30;;;;;;5031803;28;20072;-72
2023/08/10 03:18:55;;;;;;;1999.90;999.90;;;14.20;91.80;;;;;;5036547;28;20030;-73
2023/08/10 03:21:21;;;;;;;1999.90;999.90;;;14.00;92.00;;;;;;5037836;28;20704;-72
2023/08/10 03:23:47;;;;;;;1999.90;999.90;;;13.80;92.60;;;;;;5039926;28;20044;-72
2023/08/10 03:26:13;;;;;;;1999.90;999.90;;;13.70;92.80;;;;;;5036020;28;20060;-72
2023/08/10 03:28:38;;;;;;;1999.90;999.90;;;13.70;92.80;;;;;;5041189;28;20495;-72
2023/08/10 03:31:04;;;;;;;1999.90;999.90;;;13.60;92.80;;;;;;5031921;28;20032;-72
2023/08/10 03:33:29;;;;;;;1999.90;999.90;;;13.40;92.60;;;;;;5033518;28;20040;-72
2023/08/10 03:35:55;;;;;;;1999.90;999.90;;;13.40;92.90;;;;;;5034307;28;20025;-72
2023/08/10 03:38:21;;;;;;;1999.90;999.90;;;13.30;93.00;;;;;;5031443;28;20044;-72
2023/08/10 03:40:46;;;;;;;1999.90;999.90;;;13.00;92.80;;;;;;5032903;28;20554;-72
2023/08/10 03:43:12;;;;;;;1999.90;999.90;;;13.10;93.00;;;;;;5030723;28;20029;-73
2023/08/10 03:45:38;;;;;;;1999.90;999.90;;;13.10;93.00;;;;;;5033223;28;20026;-72
2023/08/10 03:48:04;;;;;;;1999.90;999.90;;;12.90;92.70;;;;;;5036176;28;20029;-72
2023/08/10 03:50:30;;;;;;;1999.90;999.90;;;12.70;92.80;;;;;;5040585;28;20124;-72
2023/08/10 03:52:55;;;;;;;1999.90;999.90;;;12.60;93.30;;;;;;5040548;28;20392;-73
2023/08/10 03:55:21;;;;;;;1999.90;999.90;;;12.50;93.40;;;;;;5034068;28;20112;-72
2023/08/10 03:57:47;;;;;;;1999.90;999.90;;;12.70;93.50;;;;;;5036067;28;20547;-73
2023/08/10 04:00:14;;;;;;;1999.90;999.90;;;12.60;93.50;;;;;;5037899;28;20121;-73
2023/08/10 04:02:39;;;;;;;1999.90;999.90;;;12.60;93.60;;;;;;5037392;28;20068;-72
2023/08/10 04:05:08;;;;;;;1999.90;999.90;;;12.60;93.80;;;;;;5035331;28;20057;-72
2023/08/10 04:07:37;;;;;;;1999.90;999.90;;;12.50;93.80;;;;;;5032576;28;20120;-73
2023/08/10 04:10:08;;;;;;;1999.90;999.90;;;12.50;93.70;;;;;;5035382;28;20037;-72
2023/08/10 04:12:35;;;;;;;1999.90;999.90;;;12.40;93.60;;;;;;5030043;28;20057;-72
2023/08/10 04:15:02;;;;;;;1999.90;999.90;;;12.40;93.80;;;;;;5031759;28;20037;-72
2023/08/10 04:17:27;;;;;;;1999.90;999.90;;;12.30;94.00;;;;;;5027853;28;20072;-73
2023/08/10 04:19:53;;;;;;;1999.90;999.90;;;12.30;94.00;;;;;;5033701;28;20056;-72
2023/08/10 04:22:19;;;;;;;1999.90;999.90;;;12.30;94.20;;;;;;5030926;28;20026;-72
2023/08/10 04:24:44;;;;;;;1999.90;999.90;;;12.30;94.20;;;;;;5027478;28;20034;-72
2023/08/10 04:27:10;;;;;;;1999.90;999.90;;;12.30;94.10;;;;;;5033531;28;20514;-73
2023/08/10 04:29:36;;;;;;;1999.90;999.90;;;12.30;93.80;;;;;;5028964;28;20495;-73
2023/08/10 04:32:01;;;;;;;1999.90;999.90;;;12.30;93.60;;;;;;5031365;28;20069;-73
2023/08/10 04:34:27;;;;;;;1999.90;999.90;;;12.20;93.40;;;;;;5034178;28;20087;-73
2023/08/10 04:36:53;;;;;;;1999.90;999.90;;;12.10;93.40;;;;;;5033269;28;20053;-74
2023/08/10 04:39:19;;;;;;;1999.90;999.90;;;12.20;93.40;;;;;;5024242;28;20520;-72
2023/08/10 04:41:44;;;;;;;1999.90;999.90;;;12.20;93.40;;;;;;5032635;28;20033;-72
2023/08/10 04:44:10;;;;;;;1999.90;999.90;;;12.20;93.40;;;;;;5028810;28;20583;-72
2023/08/10 04:46:36;;;;;;;1999.90;999.90;;;12.20;93.50;;;;;;5030830;28;20043;-73
2023/08/10 04:49:01;;;;;;;1999.90;999.90;;;12.10;93.40;;;;;;5035467;28;20507;-72
2023/08/10 04:51:27;;;;;;;1999.90;999.90;;;12.20;93.50;;;;;;5032800;28;20445;-73
2023/08/10 04:53:53;;;;;;;1999.90;999.90;;;12.30;93.60;;;;;;5034636;28;20033;-72
2023/08/10 04:56:18;;;;;;;1999.90;999.90;;;12.30;93.40;;;;;;5068837;28;20390;-72
2023/08/10 04:58:44;;;;;;;1999.90;999.90;;;12.30;93.40;;;;;;5035214;28;20566;-73
2023/08/10 05:01:12;;;;;;;1999.90;999.90;;;12.50;93.40;;;;;;5036256;28;20040;-73
2023/08/10 05:03:39;;;;;;;1999.90;999.90;;;12.60;93.60;;;;;;5034165;28;20029;-72
2023/08/10 05:06:05;;;;;;;1999.90;999.90;;;12.60;93.30;;;;;;5034214;28;20029;-73
2023/08/10 05:08:31;;;;;;;1999.90;999.90;;;12.60;93.50;;;;;;5040022;28;20514;-73
2023/08/10 05:10:58;;;;;;;1999.90;999.90;;;12.70;93.50;;;;;;5035806;28;20375;-72
2023/08/10 05:13:24;;;;;;;1999.90;999.90;;;12.80;93.50;;;;;;5039196;28;20505;-72
2023/08/10 05:15:50;;;;;;;1999.90;999.90;;;12.90;93.40;;;;;;5036465;28;20081;-72
2023/08/10 05:18:17;;;;;;;1999.90;999.90;;;13.00;93.40;;;;;;5037264;28;20105;-72
2023/08/10 05:20:43;;;;;;;1999.90;999.90;;;13.00;93.30;;;;;;5038337;28;20095;-73
2023/08/10 05:23:09;;;;;;;1999.90;999.90;;;13.00;93.40;;;;;;5039514;28;20033;-72
2023/08/10 05:25:34;;;;;;;1999.90;999.90;;;13.10;93.50;;;;;;5031338;28;20038;-73
2023/08/10 05:28:00;;;;;;;1999.90;999.90;;;13.20;93.50;;;;;;5031873;28;20025;-73
2023/08/10 05:30:26;;;;;;;1999.90;999.90;;;13.30;93.40;;;;;;5034772;28;20032;-73
2023/08/10 05:32:51;;;;;;;1999.90;999.90;;;13.30;93.60;;;;;;5037321;28;20568;-72
2023/08/10 05:35:17;;;;;;;1999.90;999.90;;;13.30;93.70;;;;;;5035056;28;20108;-73
2023/08/10 05:37:43;;;;;;;1999.90;999.90;;;13.40;93.70;;;;;;5031898;28;20124;-78
2023/08/10 05:40:11;;;;;;;1999.90;999.90;;;13.40;93.80;;;;;;5032138;28;20116;-78
2023/08/10 05:42:37;;;;;;;1999.90;999.90;;;13.40;94.10;;;;;;5031496;28;20030;-76
2023/08/10 05:45:06;;;;;;;1999.90;999.90;;;13.40;94.20;;;;;;5034719;28;20120;-77
2023/08/10 05:47:32;;;;;;;1999.90;999.90;;;13.50;94.10;;;;;;5035099;28;20029;-77
2023/08/10 05:49:58;;;;;;;1999.90;999.90;;;13.60;94.10;;;;;;5041142;28;20040;-77
2023/08/10 05:52:23;;;;;;;1999.90;999.90;;;13.70;94.20;;;;;;5033588;28;20120;-77
2023/08/10 05:54:49;;;;;;;1999.90;999.90;;;13.90;94.10;;;;;;5036037;28;20025;-75
2023/08/10 05:57:15;;;;;;;1999.90;999.90;;;13.90;94.20;;;;;;5034063;28;20089;-80
2023/08/10 05:59:40;;;;;;;1999.90;999.90;;;14.00;93.80;;;;;;5032363;28;20500;-79
2023/08/10 06:02:07;;;;;;;1999.90;999.90;;;14.10;94.00;;;;;;5031603;28;21336;-75
2023/08/10 06:04:34;;;;;;;1999.90;999.90;;;14.20;93.60;;;;;;5029437;28;20034;-77
2023/08/10 06:06:59;;;;;;;1999.90;999.90;;;14.20;93.70;;;;;;5030318;28;20048;-77
2023/08/10 06:09:25;;;;;;;1999.90;999.90;;;14.40;93.80;;;;;;5035751;28;20481;-77
2023/08/10 06:11:51;;;;;;;1999.90;999.90;;;14.60;93.10;;;;;;5032307;28;20021;-78
2023/08/10 06:14:17;;;;;;;1999.90;999.90;;;14.50;92.80;;;;;;5034466;28;20048;-78
2023/08/10 06:16:43;;;;;;;1999.90;999.90;;;14.40;92.90;;;;;;5033700;28;20060;-78
2023/08/10 06:19:09;;;;;;;1999.90;999.90;;;14.50;93.00;;;;;;5033744;28;20037;-78
2023/08/10 06:21:35;;;;;;;1999.90;999.90;;;14.40;93.00;;;;;;5032739;28;20021;-78
2023/08/10 06:24:01;;;;;;;1999.90;999.90;;;14.50;92.80;;;;;;5034758;28;20387;-78
2023/08/10 06:26:26;;;;;;;1999.90;999.90;;;14.50;93.00;;;;;;5034798;28;20052;-77
2023/08/10 06:28:52;;;;;;;1999.90;999.90;;;14.70;93.20;;;;;;5037004;28;20044;-78
2023/08/10 06:31:18;;;;;;;1999.90;999.90;;;14.70;92.80;;;;;;5036299;28;20044;-77
2023/08/10 06:33:44;;;;;;;1999.90;999.90;;;14.80;92.90;;;;;;5038917;28;20033;-78
2023/08/10 06:36:11;;;;;;;1999.90;999.90;;;14.90;92.90;;;;;;5030530;28;20435;-78
2023/08/10 06:38:37;;;;;;;1999.90;999.90;;;15.00;92.50;;;;;;5032679;28;20034;-78
2023/08/10 06:41:03;;;;;;;1999.90;999.90;;;15.10;92.20;;;;;;5035289;28;20040;-78
2023/08/10 06:43:29;;;;;;;1999.90;999.90;;;15.20;91.90;;;;;;5032616;28;20025;-77
2023/08/10 06:45:55;;;;;;;1999.90;999.90;;;15.30;91.60;;;;;;5031944;28;20034;-80
2023/08/10 06:48:20;;;;;;;1999.90;999.90;;;15.50;91.30;;;;;;5019205;28;20037;-76
2023/08/10 06:50:46;;;;;;;1999.90;999.90;;;15.50;91.10;;;;;;5036460;28;20385;-77
2023/08/10 06:53:12;;;;;;;1999.90;999.90;;;15.80;91.20;;;;;;5033526;28;20129;-75
2023/08/10 06:55:38;;;;;;;1999.90;999.90;;;15.80;90.50;;;;;;5032207;28;20041;-77
2023/08/10 06:58:05;;;;;;;1999.90;999.90;;;15.80;90.50;;;;;;5035501;28;20029;-76
2023/08/10 07:00:31;;;;;;;1999.90;999.90;;;16.00;89.20;;;;;;5036931;28;20040;-76
2023/08/10 07:02:58;;;;;;;1999.90;999.90;;;16.10;87.50;;;;;;5037512;28;20028;-78
2023/08/10 07:05:26;;;;;;;1999.90;999.90;;;16.20;87.10;;;;;;5037422;28;20087;-77
2023/08/10 07:07:52;;;;;;;1999.90;999.90;;;16.50;86.50;;;;;;5045321;28;20081;-77
2023/08/10 07:10:18;;;;;;;1999.90;999.90;;;16.70;85.90;;;;;;5038920;28;20041;-77
2023/08/10 07:12:44;;;;;;;1999.90;999.90;;;17.00;85.20;;;;;;5033568;28;20033;-77
2023/08/10 07:15:11;;;;;;;1999.90;999.90;;;17.00;82.00;;;;;;5039735;28;20041;-78
2023/08/10 07:17:37;;;;;;;1999.90;999.90;;;17.30;81.70;;;;;;5042812;28;20071;-76
2023/08/10 07:20:05;;;;;;;1999.90;999.90;;;17.60;83.30;;;;;;5036021;28;20060;-77
2023/08/10 07:22:31;;;;;;;1999.90;999.90;;;17.80;82.60;;;;;;5033775;28;20645;-77
2023/08/10 07:25:00;;;;;;;1999.90;999.90;;;18.20;77.90;;;;;;5033553;28;20112;-75
2023/08/10 07:27:26;;;;;;;1999.90;999.90;;;18.70;74.20;;;;;;5029596;28;20033;-77
2023/08/10 07:29:51;;;;;;;1999.90;999.90;;;18.60;75.00;;;;;;5042295;28;20045;-77
2023/08/10 07:32:19;;;;;;;1999.90;999.90;;;18.80;77.10;;;;;;5036052;28;20083;-77
2023/08/10 07:34:45;;;;;;;1999.90;999.90;;;19.20;72.10;;;;;;5033217;28;20163;-75
2023/08/10 07:37:10;;;;;;;1999.90;999.90;;;19.30;72.80;;;;;;5029101;28;20053;-75
2023/08/10 07:39:36;;;;;;;1999.90;999.90;;;19.50;74.00;;;;;;5033415;28;20029;-75
2023/08/10 07:42:02;;;;;;;1999.90;999.90;;;19.60;71.20;;;;;;5034165;28;20037;-75
2023/08/10 07:44:28;;;;;;;1999.90;999.90;;;20.00;70.20;;;;;;5038206;28;20033;-77
2023/08/10 07:46:54;;;;;;;1999.90;999.90;;;20.10;69.10;;;;;;5040590;28;20034;-75
2023/08/10 07:49:20;;;;;;;1999.90;999.90;;;19.70;69.00;;;;;;5043252;28;20467;-74
2023/08/10 07:51:47;;;;;;;1999.90;999.90;;;19.50;70.50;;;;;;5040614;28;20075;-75
2023/08/10 07:54:14;;;;;;;1999.90;999.90;;;19.30;73.50;;;;;;5037276;28;20373;-75
2023/08/10 07:56:39;;;;;;;1999.90;999.90;;;19.40;73.10;;;;;;5036874;28;20107;-74
2023/08/10 07:59:05;;;;;;;1999.90;999.90;;;19.30;70.30;;;;;;5036824;28;20079;-75
2023/08/10 08:01:31;;;;;;;1999.90;999.90;;;19.70;68.70;;;;;;5033827;28;20040;-75
2023/08/10 08:03:56;;;;;;;1999.90;999.90;;;19.60;69.70;;;;;;5034055;28;20036;-75
2023/08/10 08:06:23;;;;;;;1999.90;999.90;;;19.60;70.30;;;;;;5032509;28;20033;-75
2023/08/10 08:08:49;;;;;;;1999.90;999.90;;;19.50;70.50;;;;;;5032217;28;20112;-75
2023/08/10 08:11:15;;;;;;;1999.90;999.90;;;19.30;70.50;;;;;;5031631;28;20128;-75
2023/08/10 08:13:41;;;;;;;1999.90;999.90;;;19.20;72.70;;;;;;5036251;28;20026;-75
2023/08/10 08:16:07;;;;;;;1999.90;999.90;;;19.00;71.70;;;;;;5028821;28;20037;-76
2023/08/10 08:18:42;;;;;;;1999.90;999.90;;;19.40;70.70;;;;;;5029191;28;20032;-76
2023/08/10 08:21:09;;;;;;;1999.90;999.90;;;20.00;72.20;;;;;;5033432;28;20087;-76
2023/08/10 08:23:35;;;;;;;1999.90;999.90;;;20.00;69.10;;;;;;5041012;28;20162;-75
2023/08/10 08:26:01;;;;;;;1999.90;999.90;;;20.30;69.80;;;;;;5037041;28;20768;-76
2023/08/10 08:28:26;;;;;;;1999.90;999.90;;;20.20;67.90;;;;;;5039444;28;20071;-74
2023/08/10 08:30:53;;;;;;;1999.90;999.90;;;20.70;67.20;;;;;;5046261;28;20038;-74
2023/08/10 08:33:19;;;;;;;1999.90;999.90;;;20.80;66.90;;;;;;5041269;28;20029;-76
2023/08/10 08:35:46;;;;;;;1999.90;999.90;;;20.90;68.50;;;;;;5041741;28;20036;-75
2023/08/10 08:38:15;;;;;;;1999.90;999.90;;;21.20;67.20;;;;;;5038195;28;20036;-75
2023/08/10 08:40:42;;;;;;;1999.90;999.90;;;20.90;68.90;;;;;;5042479;28;20033;-75
2023/08/10 08:43:09;;;;;;;1999.90;999.90;;;20.90;65.90;;;;;;5039561;28;20867;-75
2023/08/10 08:45:35;;;;;;;1999.90;999.90;;;21.00;66.60;;;;;;5038752;28;20404;-75
2023/08/10 08:48:03;;;;;;;1999.90;999.90;;;21.50;63.50;;;;;;5035891;28;20029;-75
2023/08/10 08:50:29;;;;;;;1999.90;999.90;;;21.20;62.70;;;;;;5036509;28;20036;-75
2023/08/10 08:52:55;;;;;;;1999.90;999.90;;;21.40;63.30;;;;;;5039679;28;20403;-75
2023/08/10 08:55:21;;;;;;;1999.90;999.90;;;21.50;63.60;;;;;;5031625;28;20021;-75
2023/08/10 08:57:47;;;;;;;1999.90;999.90;;;22.00;62.20;;;;;;5033398;28;20052;-75
2023/08/10 09:00:14;;;;;;;1999.90;999.90;;;22.30;62.80;;;;;;5031259;28;20033;-75
2023/08/10 09:02:40;;;;;;;1999.90;999.90;;;22.60;58.60;;;;;;5045312;28;20495;-75
2023/08/10 09:05:07;;;;;;;1999.90;999.90;;;22.20;59.40;;;;;;5042461;28;20043;-75
2023/08/10 09:07:33;;;;;;;1999.90;999.90;;;22.30;61.00;;;;;;5035372;28;20060;-75
2023/08/10 09:09:59;;;;;;;1999.90;999.90;;;22.60;61.00;;;;;;5038365;28;20115;-74
2023/08/10 09:12:35;;;;;;;1999.90;999.90;;;22.80;59.80;;;;;;5040112;28;20065;-75
2023/08/10 09:15:05;;;;;;;1999.90;999.90;;;22.70;60.40;;;;;;5039550;28;20151;-75
2023/08/10 09:17:36;;;;;;;1999.90;999.90;;;22.50;60.70;;;;;;5044924;28;20037;-75
2023/08/10 09:20:06;;;;;;;1999.90;999.90;;;22.80;56.60;;;;;;5042136;28;20167;-75
2023/08/10 09:22:39;;;;;;;1999.90;999.90;;;22.70;57.80;;;;;;5034126;28;20026;-75
2023/08/10 09:25:09;;;;;;;1999.90;999.90;;;22.10;57.90;;;;;;5037959;28;20239;-75
2023/08/10 09:27:35;;;;;;;1999.90;999.90;;;22.90;58.50;;;;;;5033329;28;20047;-75
2023/08/10 09:30:03;;;;;;;1999.90;999.90;;;23.10;53.50;;;;;;5037722;28;20481;-75
2023/08/10 09:32:30;;;;;;;1999.90;999.90;;;22.70;54.50;;;;;;5037949;28;20037;-75
2023/08/10 09:34:55;;;;;;;1999.90;999.90;;;22.20;58.60;;;;;;5034838;28;20120;-75
2023/08/10 09:37:23;;;;;;;1999.90;999.90;;;22.60;61.10;;;;;;5031184;28;20128;-75
2023/08/10 09:39:54;;;;;;;1999.90;999.90;;;22.60;61.10;;;;;;5028842;28;20035;-75
2023/08/10 09:42:20;;;;;;;1999.90;999.90;;;22.50;57.60;;;;;;5039973;28;20486;-75
2023/08/10 09:44:47;;;;;;;1999.90;999.90;;;22.50;58.70;;;;;;5041680;28;20040;-75
2023/08/10 09:47:14;;;;;;;1999.90;999.90;;;23.00;58.50;;;;;;5031423;28;20029;-75
2023/08/10 09:49:55;;;;;;;1999.90;999.90;;;23.20;57.00;;;;;;5033383;28;20034;-75
2023/08/10 09:52:22;;;;;;;1999.90;999.90;;;23.60;51.40;;;;;;5034218;28;20084;-75
2023/08/10 09:54:50;;;;;;;1999.90;999.90;;;23.90;52.40;;;;;;5032404;28;20044;-75
2023/08/10 09:57:17;;;;;;;1999.90;999.90;;;23.60;51.50;;;;;;5031610;28;20033;-75
2023/08/10 09:59:45;;;;;;;1999.90;999.90;;;23.70;51.10;;;;;;5029960;28;20050;-75
2023/08/10 10:02:11;;;;;;;1999.90;999.90;;;23.60;50.50;;;;;;5032943;28;20483;-75
2023/08/10 10:04:38;;;;;;;1999.90;999.90;;;23.70;51.30;;;;;;5033744;28;20033;-75
2023/08/10 10:07:05;;;;;;;1999.90;999.90;;;23.80;50.80;;;;;;5028316;28;20034;-75
2023/08/10 10:09:33;;;;;;;1999.90;999.90;;;23.50;51.30;;;;;;5036419;28;20115;-75
2023/08/10 10:12:00;;;;;;;1999.90;999.90;;;23.30;54.10;;;;;;5027409;28;20033;-75
2023/08/10 10:14:27;;;;;;;1999.90;999.90;;;23.50;49.30;;;;;;5034823;28;20068;-75
2023/08/10 10:16:53;;;;;;;1999.90;999.90;;;23.40;53.00;;;;;;5030520;28;20041;-75
2023/08/10 10:19:20;;;;;;;1999.90;999.90;;;23.70;53.80;;;;;;5032955;28;20053;-75
2023/08/10 10:21:47;;;;;;;1999.90;999.90;;;24.60;54.10;;;;;;5045570;28;20025;-75
2023/08/10 10:24:17;;;;;;;1999.90;999.90;;;24.70;50.60;;;;;;5032545;28;20057;-75
2023/08/10 10:27:09;;;;;;;;;;;23.50;50.70;;;;;;5033589;28;20382;-78
2023/08/10 10:30:05;;;;;;;1999.90;999.90;;;23.40;54.80;;;;;;5027236;28;19943;-75
2023/08/10 10:32:31;;;;;;;1999.90;999.90;;;23.70;54.50;;;;;;5035866;28;20034;-75
2023/08/10 10:34:57;;;;;;;1999.90;999.90;;;24.60;53.40;;;;;;5035103;28;20040;-75
2023/08/10 10:37:30;;;;;;;1999.90;999.90;;;25.10;50.20;;;;;;5034331;28;20570;-75
2023/08/10 10:40:18;;;;;;;1999.90;999.90;;;25.90;50.30;;;;;;5033997;28;20038;-75
2023/08/10 10:43:03;;;;;;;1999.90;999.90;;;26.50;49.90;;;;;;5035695;28;20068;-76
2023/08/10 10:45:42;;;;;;;1999.90;999.90;;;26.80;45.00;;;;;;5036950;28;20021;-75
2023/08/10 10:48:12;;;;;;;1999.90;999.90;;;25.00;47.50;;;;;;5043253;28;20064;-75
2023/08/10 10:50:39;;;;;;;1999.90;999.90;;;25.20;49.00;;;;;;5039513;28;20028;-76
2023/08/10 10:53:15;;;;;;;1999.90;999.90;;;25.50;47.10;;;;;;5037951;28;20037;-76
2023/08/10 10:55:42;;;;;;;1999.90;999.90;;;25.80;48.00;;;;;;5034044;28;20108;-76
2023/08/10 10:58:10;;;;;;;1999.90;999.90;;;26.10;43.40;;;;;;5037870;28;20037;-76
2023/08/10 11:00:37;;;;;;;1999.90;999.90;;;24.70;47.30;;;;;;5027905;28;20129;-76
2023/08/10 11:03:10;;;;;;;1999.90;999.90;;;24.30;49.00;;;;;;5028114;28;20025;-76
2023/08/10 11:05:37;;;;;;;1999.90;999.90;;;23.40;50.30;;;;;;5032668;28;20026;-76
2023/08/10 11:08:03;;;;;;;1999.90;999.90;;;23.20;49.80;;;;;;5034940;28;20029;-76
2023/08/10 11:10:40;;;;;;;1999.90;999.90;;;22.80;54.20;;;;;;5036642;28;20041;-76
2023/08/10 11:13:07;;;;;;;1999.90;999.90;;;22.80;53.50;;;;;;5034293;28;20422;-76
2023/08/10 11:15:34;;;;;;;1999.90;999.90;;;23.40;51.70;;;;;;5034203;28;20037;-76
2023/08/10 11:18:02;;;;;;;1999.90;999.90;;;25.00;49.80;;;;;;5034282;28;20518;-76
2023/08/10 11:20:28;;;;;;;1999.90;999.90;;;25.20;45.00;;;;;;5033156;28;20535;-76
2023/08/10 11:22:54;;;;;;;1999.90;999.90;;;26.20;47.40;;;;;;5038741;28;20038;-76
2023/08/10 11:25:25;;;;;;;1999.90;999.90;;;27.60;43.90;;;;;;5034001;28;20083;-76
2023/08/10 11:27:52;;;;;;;1999.90;999.90;;;28.60;40.80;;;;;;5033716;28;20473;-76
2023/08/10 11:30:21;;;;;;;1999.90;999.90;;;28.70;39.00;;;;;;5030783;28;20040;-77
2023/08/10 11:32:49;;;;;;;1999.90;999.90;;;29.30;32.90;;;;;;5034385;28;20060;-77
2023/08/10 11:35:18;;;;;;;1999.90;999.90;;;29.00;35.70;;;;;;5033167;28;20033;-76
2023/08/10 11:37:44;;;;;;;1999.90;999.90;;;29.20;33.90;;;;;;5029047;28;20579;-76
2023/08/10 11:40:15;;;;;;;1999.90;999.90;;;30.10;32.30;;;;;;5030586;28;20136;-76
2023/08/10 11:42:43;;;;;;;1999.90;999.90;;;29.10;33.00;;;;;;5036274;28;20029;-76
2023/08/10 11:45:20;;;;;;;1999.90;999.90;;;29.90;32.30;;;;;;5036609;28;20037;-76
2023/08/10 11:47:56;;;;;;;1999.90;999.90;;;29.00;31.40;;;;;;5037118;28;20040;-76
2023/08/10 11:50:22;;;;;;;1999.90;999.90;;;27.70;35.10;;;;;;5032080;28;20732;-75
2023/08/10 11:52:54;;;;;;;1999.90;999.90;;;27.60;36.90;;;;;;5031524;28;20033;-75
2023/08/10 11:55:22;;;;;;;1999.90;999.90;;;27.50;36.40;;;;;;5033876;28;20161;-76
2023/08/10 11:57:50;;;;;;;1999.90;999.90;;;27.30;36.80;;;;;;5034612;28;20519;-75
2023/08/10 12:00:22;;;;;;;1999.90;999.90;;;27.60;37.10;;;;;;5031604;28;20152;-76